Time;durP1;ratioP1;P1;durP2;ratioP2;P2;SDS_P1;SDS_P2;PMS_P1;PMS_P2;Temp;Humidity;BMP_temperature;BMP_pressure;BME280_temperature;BME280_humidity;BME280_pressure;Samples;Min_cycle;Max_cycle;Signal;HPM_P1;HPM_P2
2022/01/27 00:02:18;;;;;;;99.73;27.03;;;4.70;99.90;;;;;;5092489;28;20697;-78
2022/01/27 00:05:01;;;;;;;104.20;29.17;;;4.70;99.90;;;;;;5107540;27;23283;-79
2022/01/27 00:07:28;;;;;;;110.13;26.93;;;4.70;99.90;;;;;;5095191;28;20217;-78
2022/01/27 00:10:08;;;;;;;105.67;28.23;;;4.70;99.90;;;;;;5094869;28;20598;-79
2022/01/27 00:12:36;;;;;;;91.30;25.33;;;4.70;99.90;;;;;;5092024;28;20217;-77
2022/01/27 00:15:09;;;;;;;88.47;25.93;;;4.70;99.90;;;;;;5088132;28;20356;-77
2022/01/27 00:17:41;;;;;;;86.47;23.67;;;4.70;99.90;;;;;;5085111;28;20233;-77
2022/01/27 00:20:10;;;;;;;91.00;26.13;;;4.70;99.90;;;;;;5085744;28;20239;-79
2022/01/27 00:22:37;;;;;;;94.33;22.50;;;4.70;99.90;;;;;;5096582;28;20216;-78
2022/01/27 00:25:06;;;;;;;91.43;24.30;;;;;;;;;;5092833;28;20240;-78
2022/01/27 00:27:33;;;;;;;99.07;24.47;;;4.70;99.90;;;;;;5085738;28;20656;-78
2022/01/27 00:30:03;;;;;;;105.10;28.23;;;4.70;99.90;;;;;;5086367;28;20299;-78
2022/01/27 00:32:30;;;;;;;104.83;27.63;;;4.80;99.90;;;;;;5089349;28;20216;-78
2022/01/27 00:34:57;;;;;;;90.30;23.60;;;4.80;99.90;;;;;;5081972;28;20564;-78
2022/01/27 00:37:26;;;;;;;98.07;24.70;;;;;;;;;;5085775;28;20526;-78
2022/01/27 00:39:54;;;;;;;114.17;29.23;;;4.80;99.90;;;;;;5084703;28;20216;-78
2022/01/27 00:42:22;;;;;;;87.53;22.03;;;;;;;;;;5088260;28;20707;-78
2022/01/27 00:44:49;;;;;;;92.70;24.63;;;4.70;99.90;;;;;;5083913;28;20219;-77
2022/01/27 00:47:17;;;;;;;97.57;25.43;;;4.70;99.90;;;;;;5085890;28;20212;-78
2022/01/27 00:49:44;;;;;;;84.43;20.70;;;;;;;;;;5089794;28;20204;-77
2022/01/27 00:52:15;;;;;;;89.77;23.93;;;4.70;99.90;;;;;;5076502;28;20269;-81
2022/01/27 00:54:44;;;;;;;103.23;25.20;;;4.70;99.90;;;;;;5078881;28;20229;-78
2022/01/27 00:59:58;;;;;;;77.60;20.47;;;4.60;99.90;;;;;;5444915;22;20227;-76
2022/01/27 01:02:36;;;;;;;95.03;24.30;;;4.70;99.90;;;;;;5097777;28;20222;-76
2022/01/27 01:05:16;;;;;;;100.80;27.70;;;4.70;99.90;;;;;;5085451;28;20525;-76
2022/01/27 01:07:48;;;;;;;98.93;24.63;;;;;;;;;;5105166;27;20251;-77
2022/01/27 01:16:06;;;;;;;98.43;26.97;;;4.60;99.90;;;;;;5079281;28;20238;-74
2022/01/27 01:18:44;;;;;;;94.33;25.03;;;4.70;99.90;;;;;;5105383;28;21838;-72
2022/01/27 01:29:50;;;;;;;99.53;25.63;;;;;;;;;;5102407;28;20231;-74
2022/01/27 01:32:27;;;;;;;94.00;25.67;;;;;;;;;;5102403;28;20285;-74
2022/01/27 01:34:54;;;;;;;89.80;23.17;;;4.70;99.90;;;;;;5102240;28;20294;-75
2022/01/27 01:37:22;;;;;;;110.17;27.07;;;4.60;99.90;;;;;;5104960;28;20617;-74
2022/01/27 01:39:48;;;;;;;111.60;28.13;;;4.60;99.90;;;;;;5105289;28;20207;-74
2022/01/27 01:42:17;;;;;;;92.27;25.90;;;4.60;99.90;;;;;;5105958;28;20689;-75
2022/01/27 01:44:48;;;;;;;105.47;27.77;;;4.60;99.90;;;;;;5098776;28;20218;-74
2022/01/27 01:47:15;;;;;;;109.83;28.67;;;;;;;;;;5102363;28;20326;-75
2022/01/27 01:49:42;;;;;;;97.70;26.10;;;4.60;99.90;;;;;;5092944;28;20204;-74
2022/01/27 01:52:09;;;;;;;98.83;24.23;;;4.60;99.90;;;;;;5103351;28;20200;-75
2022/01/27 01:54:36;;;;;;;101.97;27.43;;;4.60;99.90;;;;;;5098311;28;20307;-75
2022/01/27 01:57:04;;;;;;;102.67;27.60;;;3.00;99.90;;;;;;5105110;28;20228;-74
2022/01/27 01:59:32;;;;;;;102.10;25.53;;;4.50;99.90;;;;;;5091545;28;20239;-75
2022/01/27 02:01:59;;;;;;;89.87;25.23;;;4.50;99.90;;;;;;5102914;28;20218;-74
2022/01/27 02:04:26;;;;;;;93.23;21.80;;;4.50;99.90;;;;;;5102948;28;20206;-74
2022/01/27 02:06:56;;;;;;;98.53;24.57;;;4.40;99.90;;;;;;5090221;28;20207;-74
2022/01/27 02:09:35;;;;;;;99.53;27.13;;;4.50;99.90;;;;;;5092266;28;20689;-75
2022/01/27 02:18:00;;;;;;;98.00;26.53;;;4.50;99.90;;;;;;5090690;28;20304;-74
2022/01/27 02:20:29;;;;;;;96.40;25.17;;;4.50;99.90;;;;;;5106035;28;20207;-76
2022/01/27 02:22:56;;;;;;;107.60;28.10;;;4.50;99.90;;;;;;5102840;28;20239;-76
2022/01/27 02:25:23;;;;;;;99.20;25.50;;;4.60;99.90;;;;;;5095047;28;20313;-75
2022/01/27 02:27:53;;;;;;;111.07;26.70;;;4.50;99.90;;;;;;5106828;28;20219;-76
2022/01/27 02:30:22;;;;;;;92.30;23.47;;;;;;;;;;5097951;28;20212;-75
2022/01/27 02:32:51;;;;;;;94.40;24.57;;;4.40;99.90;;;;;;5101028;28;20218;-75
2022/01/27 02:35:18;;;;;;;94.03;22.67;;;4.50;99.90;;;;;;5098127;28;20224;-75
2022/01/27 02:37:46;;;;;;;98.37;25.00;;;4.60;99.90;;;;;;5104844;28;20219;-75
2022/01/27 02:40:19;;;;;;;83.53;20.63;;;4.60;99.90;;;;;;5105389;28;20218;-75
2022/01/27 02:42:46;;;;;;;96.97;25.53;;;4.60;99.90;;;;;;5101038;28;20222;-74
2022/01/27 02:45:17;;;;;;;91.37;25.00;;;4.60;99.90;;;;;;5100155;28;20211;-75
2022/01/27 02:47:45;;;;;;;86.60;21.43;;;4.60;99.90;;;;;;5095884;28;20312;-75
2022/01/27 02:50:12;;;;;;;100.23;24.93;;;4.60;99.90;;;;;;5100065;28;20672;-75
2022/01/27 02:52:39;;;;;;;96.83;25.67;;;4.60;99.90;;;;;;5099557;28;20211;-75
2022/01/27 02:55:09;;;;;;;91.17;23.53;;;4.70;99.90;;;;;;5108952;28;20260;-75
2022/01/27 02:57:36;;;;;;;94.57;24.10;;;;;;;;;;5107266;28;20752;-75
2022/01/27 03:00:05;;;;;;;92.83;23.10;;;4.60;99.90;;;;;;5102119;28;20212;-73
2022/01/27 03:02:33;;;;;;;87.50;21.43;;;4.70;99.90;;;;;;5110214;28;20260;-74
2022/01/27 03:05:00;;;;;;;102.63;27.57;;;4.60;99.90;;;;;;5106121;28;20266;-75
2022/01/27 03:07:27;;;;;;;97.87;24.30;;;4.70;99.90;;;;;;5108228;28;20199;-75
2022/01/27 03:09:55;;;;;;;91.83;24.47;;;;;;;;;;5098802;28;20208;-74
2022/01/27 03:12:26;;;;;;;83.97;23.63;;;4.70;99.90;;;;;;5101134;28;20252;-74
2022/01/27 03:14:53;;;;;;;87.77;19.80;;;4.70;99.90;;;;;;5106899;28;20426;-73
2022/01/27 03:17:20;;;;;;;112.63;26.23;;;4.70;99.90;;;;;;5113292;27;20224;-74
2022/01/27 03:19:48;;;;;;;98.43;23.37;;;4.70;99.90;;;;;;5098335;28;20558;-73
2022/01/27 03:22:15;;;;;;;89.87;23.20;;;4.70;99.90;;;;;;5115524;28;20265;-75
2022/01/27 03:24:41;;;;;;;95.57;25.30;;;4.70;99.90;;;;;;5108662;28;20215;-76
2022/01/27 03:27:15;;;;;;;88.03;23.30;;;4.70;99.90;;;;;;5107406;28;20215;-75
2022/01/27 03:29:44;;;;;;;89.83;23.37;;;4.80;99.90;;;;;;5108347;28;20211;-74
2022/01/27 03:32:11;;;;;;;101.53;25.07;;;;;;;;;;5107525;28;20796;-74
2022/01/27 03:34:38;;;;;;;97.87;25.37;;;4.80;99.90;;;;;;5111099;28;20222;-75
2022/01/27 03:37:05;;;;;;;94.33;24.43;;;4.70;99.90;;;;;;5092383;28;20235;-75
2022/01/27 03:39:32;;;;;;;100.17;25.27;;;4.80;99.90;;;;;;5098844;28;20262;-74
2022/01/27 03:42:00;;;;;;;90.40;23.80;;;4.80;99.90;;;;;;5098970;28;20226;-75
2022/01/27 03:44:29;;;;;;;94.57;23.93;;;4.80;99.90;;;;;;5108477;28;20684;-73
2022/01/27 03:46:58;;;;;;;76.10;17.23;;;4.80;99.90;;;;;;5103649;28;20284;-75
2022/01/27 03:49:25;;;;;;;93.50;21.63;;;4.80;99.90;;;;;;5106765;28;20232;-74
2022/01/27 03:51:58;;;;;;;79.00;21.20;;;4.80;99.90;;;;;;5108658;28;20203;-75
2022/01/27 03:54:24;;;;;;;100.87;26.07;;;4.80;99.90;;;;;;5107097;28;20218;-75
2022/01/27 03:56:51;;;;;;;89.63;22.20;;;4.80;99.90;;;;;;5102255;28;20263;-74
2022/01/27 03:59:18;;;;;;;69.13;19.50;;;4.70;99.90;;;;;;5094164;28;20634;-74
2022/01/27 04:01:45;;;;;;;96.57;24.83;;;;;;;;;;5106334;28;20275;-75
2022/01/27 04:04:14;;;;;;;82.57;22.00;;;4.70;99.90;;;;;;5103604;28;20913;-75
2022/01/27 04:06:41;;;;;;;75.93;20.93;;;4.70;99.90;;;;;;5107469;28;20226;-75
2022/01/27 04:09:10;;;;;;;100.40;24.33;;;4.70;99.90;;;;;;5110232;28;20223;-74
2022/01/27 04:11:39;;;;;;;97.33;25.67;;;4.70;99.90;;;;;;5110790;28;20207;-74
2022/01/27 04:14:06;;;;;;;81.87;21.43;;;4.70;99.90;;;;;;5104122;28;20226;-73
2022/01/27 04:16:33;;;;;;;99.60;26.33;;;4.70;99.90;;;;;;5106788;28;20215;-74
2022/01/27 04:19:00;;;;;;;80.80;20.83;;;;;;;;;;5106235;28;20223;-74
2022/01/27 04:21:28;;;;;;;96.13;23.03;;;4.70;99.90;;;;;;5103847;28;20207;-74
2022/01/27 04:23:56;;;;;;;100.33;25.27;;;;;;;;;;5106822;28;20210;-74
2022/01/27 04:26:29;;;;;;;85.33;21.33;;;4.70;99.90;;;;;;5103798;28;20199;-73
2022/01/27 04:28:57;;;;;;;84.13;21.40;;;;;;;;;;5100018;28;20318;-74
2022/01/27 04:31:25;;;;;;;96.20;23.03;;;4.70;99.90;;;;;;5092488;28;20298;-74
2022/01/27 04:33:53;;;;;;;101.00;25.07;;;4.70;99.90;;;;;;5107065;28;20228;-73
2022/01/27 04:36:25;;;;;;;94.70;24.00;;;;;;;;;;5090874;28;20315;-74
2022/01/27 04:39:01;;;;;;;96.87;24.30;;;5.70;99.90;;;;;;5097194;28;20719;-73
2022/01/27 04:41:39;;;;;;;101.57;25.40;;;4.70;99.90;;;;;;5103553;28;20216;-73
2022/01/27 04:44:15;;;;;;;93.40;23.77;;;4.70;99.90;;;;;;5106701;28;20203;-73
2022/01/27 04:46:48;;;;;;;99.07;22.67;;;4.70;99.90;;;;;;5102836;28;20573;-74
2022/01/27 04:49:15;;;;;;;88.57;22.53;;;4.70;99.90;;;;;;5105704;28;20238;-74
2022/01/27 04:51:42;;;;;;;101.40;25.00;;;;;;;;;;5097106;28;20553;-74
2022/01/27 04:54:16;;;;;;;87.83;22.17;;;4.70;99.90;;;;;;5106780;28;20282;-74
2022/01/27 04:56:43;;;;;;;87.40;20.53;;;4.60;99.90;;;;;;5103692;28;20223;-74
2022/01/27 04:59:16;;;;;;;92.40;21.83;;;4.70;99.90;;;;;;5097080;28;20289;-75
2022/01/27 05:01:48;;;;;;;100.63;23.50;;;;;;;;;;5088515;28;20207;-74
2022/01/27 05:04:17;;;;;;;72.13;20.00;;;4.70;99.90;;;;;;5092520;28;20592;-74
2022/01/27 05:06:45;;;;;;;102.93;24.67;;;;;;;;;;5096064;28;20235;-75
2022/01/27 05:09:14;;;;;;;100.80;25.57;;;4.80;99.90;;;;;;5104799;28;20223;-74
2022/01/27 05:11:47;;;;;;;109.43;25.73;;;4.80;99.90;;;;;;5106059;28;20550;-74
2022/01/27 05:14:17;;;;;;;98.20;24.93;;;;;;;;;;5099343;28;20218;-73
2022/01/27 05:16:44;;;;;;;90.20;21.50;;;4.80;99.90;;;;;;5103965;28;20223;-74
2022/01/27 05:19:12;;;;;;;82.80;20.77;;;4.80;99.90;;;;;;5088484;28;20704;-74
2022/01/27 05:21:40;;;;;;;87.30;22.97;;;4.80;99.90;;;;;;5094925;28;20237;-74
2022/01/27 05:24:08;;;;;;;96.17;23.73;;;4.90;99.90;;;;;;5097214;28;20294;-74
2022/01/27 05:26:38;;;;;;;97.77;24.07;;;4.80;99.90;;;;;;5099367;28;20207;-74
2022/01/27 05:29:05;;;;;;;87.67;22.47;;;4.90;99.90;;;;;;5092924;28;20664;-74
2022/01/27 05:31:33;;;;;;;89.27;20.83;;;5.00;99.90;;;;;;5102553;28;20207;-74
2022/01/27 05:33:59;;;;;;;103.33;24.30;;;5.00;99.90;;;;;;5104663;28;20211;-74
2022/01/27 05:36:27;;;;;;;106.17;24.93;;;;;;;;;;5105073;28;20650;-75
2022/01/27 05:38:53;;;;;;;88.07;22.83;;;5.00;99.90;;;;;;5109945;28;20325;-74
2022/01/27 05:41:20;;;;;;;95.53;24.00;;;5.10;99.90;;;;;;5106252;28;20208;-75
2022/01/27 05:43:49;;;;;;;91.23;24.00;;;5.10;99.90;;;;;;5104211;28;20212;-74
2022/01/27 05:46:16;;;;;;;89.33;20.93;;;;;;;;;;5107703;28;20211;-75
2022/01/27 05:48:43;;;;;;;92.93;21.27;;;5.10;99.90;;;;;;5100378;28;20228;-75
2022/01/27 05:51:12;;;;;;;79.20;20.83;;;5.10;99.90;;;;;;5095020;28;20577;-74
2022/01/27 05:53:39;;;;;;;97.63;24.93;;;5.10;99.90;;;;;;5097250;28;20247;-75
2022/01/27 05:56:06;;;;;;;98.77;23.57;;;5.10;99.90;;;;;;5098419;28;20218;-75
2022/01/27 05:58:33;;;;;;;86.90;20.47;;;5.20;99.90;;;;;;5096673;28;20232;-75
2022/01/27 06:01:01;;;;;;;85.00;20.30;;;5.20;99.90;;;;;;5102033;28;20297;-74
2022/01/27 06:03:28;;;;;;;102.80;24.37;;;5.30;99.90;;;;;;5099258;28;20209;-73
2022/01/27 06:05:55;;;;;;;88.03;20.23;;;5.30;99.90;;;;;;5112032;28;20241;-75
2022/01/27 06:08:22;;;;;;;89.27;22.30;;;5.30;99.90;;;;;;5104325;28;20272;-74
2022/01/27 06:10:50;;;;;;;77.77;18.10;;;5.40;99.90;;;;;;5102221;28;20207;-75
2022/01/27 06:13:17;;;;;;;82.97;21.00;;;5.30;99.90;;;;;;5093049;28;20551;-75
2022/01/27 06:15:44;;;;;;;84.27;21.40;;;5.40;99.90;;;;;;5102797;28;20215;-75
2022/01/27 06:18:12;;;;;;;87.00;22.80;;;5.50;99.90;;;;;;5103526;28;20225;-75
2022/01/27 06:20:40;;;;;;;92.97;21.50;;;5.50;99.90;;;;;;5103791;28;20308;-74
2022/01/27 06:23:07;;;;;;;91.17;22.53;;;5.50;99.90;;;;;;5106059;28;20208;-74
2022/01/27 06:25:35;;;;;;;88.43;23.17;;;5.60;99.90;;;;;;5102506;28;20215;-74
2022/01/27 06:28:02;;;;;;;89.97;21.50;;;5.60;99.90;;;;;;5105539;28;20225;-74
2022/01/27 06:30:29;;;;;;;100.60;23.30;;;5.60;99.90;;;;;;5103393;28;20211;-74
2022/01/27 06:32:56;;;;;;;79.60;19.87;;;5.60;99.90;;;;;;5097333;28;20228;-74
2022/01/27 06:35:24;;;;;;;99.77;23.50;;;5.70;99.90;;;;;;5100425;28;20199;-73
2022/01/27 06:37:51;;;;;;;89.20;18.53;;;5.70;99.90;;;;;;5104523;27;20756;-73
2022/01/27 06:40:19;;;;;;;86.93;22.43;;;;;;;;;;5099894;28;20352;-72
2022/01/27 06:42:45;;;;;;;98.53;24.27;;;5.80;99.90;;;;;;5100837;28;20313;-74
2022/01/27 06:45:13;;;;;;;77.63;20.53;;;5.80;99.90;;;;;;5099616;28;20703;-74
2022/01/27 06:47:40;;;;;;;90.03;22.07;;;;;;;;;;5100178;28;20587;-75
2022/01/27 06:50:08;;;;;;;81.30;20.30;;;5.90;99.90;;;;;;5102562;28;20208;-76
2022/01/27 06:52:36;;;;;;;96.70;23.73;;;5.90;99.90;;;;;;5117830;27;20218;-73
2022/01/27 06:55:05;;;;;;;90.93;21.50;;;5.90;99.90;;;;;;5107514;28;20270;-74
2022/01/27 06:57:33;;;;;;;94.33;23.53;;;6.00;99.90;;;;;;5101539;28;20237;-73
2022/01/27 07:00:00;;;;;;;72.03;18.50;;;6.00;99.90;;;;;;5098537;28;20219;-73
2022/01/27 07:02:27;;;;;;;98.23;23.53;;;6.00;99.90;;;;;;5099491;28;20222;-75
2022/01/27 07:04:54;;;;;;;82.43;19.50;;;6.10;99.90;;;;;;5100702;28;20207;-75
2022/01/27 07:07:21;;;;;;;100.33;24.13;;;6.10;99.90;;;;;;5107970;28;20228;-74
2022/01/27 07:09:49;;;;;;;84.07;19.67;;;6.10;99.90;;;;;;5106524;28;20209;-73
2022/01/27 07:12:16;;;;;;;82.33;18.43;;;;;;;;;;5103693;28;20290;-74
2022/01/27 07:14:43;;;;;;;89.33;20.73;;;6.20;99.90;;;;;;5107886;28;20210;-74
2022/01/27 07:17:12;;;;;;;85.07;20.53;;;6.20;99.90;;;;;;5106838;28;20223;-74
2022/01/27 07:19:39;;;;;;;91.43;23.30;;;6.20;99.90;;;;;;5101617;28;20215;-73
2022/01/27 07:22:06;;;;;;;92.10;21.87;;;6.20;99.90;;;;;;5097669;28;20217;-74
2022/01/27 07:24:33;;;;;;;94.53;23.37;;;;;;;;;;5106394;28;20212;-74
2022/01/27 07:27:01;;;;;;;76.87;17.30;;;6.30;99.90;;;;;;5102010;28;20297;-74
2022/01/27 07:29:28;;;;;;;93.30;24.00;;;6.40;99.90;;;;;;5100894;28;20223;-75
2022/01/27 07:31:55;;;;;;;87.87;22.33;;;6.30;99.90;;;;;;5099361;28;20207;-74
2022/01/27 07:34:23;;;;;;;82.70;19.83;;;6.30;99.90;;;;;;5103077;28;20238;-74
2022/01/27 07:36:54;;;;;;;93.97;23.10;;;6.30;99.90;;;;;;5103093;28;20207;-74
2022/01/27 07:39:21;;;;;;;86.67;20.17;;;6.40;99.90;;;;;;5106198;28;20227;-75
2022/01/27 07:41:49;;;;;;;90.20;21.80;;;;;;;;;;5101740;28;20204;-74
2022/01/27 07:44:17;;;;;;;88.80;22.13;;;6.40;99.90;;;;;;5106531;28;20215;-73
2022/01/27 07:46:44;;;;;;;83.80;20.83;;;6.40;99.90;;;;;;5097054;28;20210;-73
2022/01/27 07:49:11;;;;;;;100.77;23.70;;;6.40;99.90;;;;;;5098404;28;20244;-73
2022/01/27 07:51:38;;;;;;;96.97;23.17;;;6.40;99.90;;;;;;5106269;28;20196;-73
2022/01/27 07:54:05;;;;;;;86.33;21.20;;;6.50;99.90;;;;;;5103739;28;20207;-73
2022/01/27 07:56:32;;;;;;;75.43;19.37;;;6.50;99.90;;;;;;5096221;28;20219;-73
2022/01/27 07:58:59;;;;;;;85.60;20.20;;;6.50;99.90;;;;;;5112773;28;20226;-73
2022/01/27 08:01:27;;;;;;;107.67;25.23;;;6.50;99.90;;;;;;5104897;28;20286;-74
2022/01/27 08:03:54;;;;;;;81.50;21.70;;;;;;;;;;5106092;28;20207;-74
2022/01/27 08:06:21;;;;;;;83.13;19.60;;;;;;;;;;5109542;28;20286;-75
2022/01/27 08:08:49;;;;;;;86.60;22.90;;;6.60;99.90;;;;;;5106052;28;20556;-72
2022/01/27 08:11:16;;;;;;;85.73;21.17;;;6.40;99.90;;;;;;5100180;28;20617;-75
2022/01/27 08:13:43;;;;;;;84.23;20.57;;;6.50;99.90;;;;;;5102659;28;20494;-74
2022/01/27 08:16:10;;;;;;;94.97;24.67;;;6.30;99.90;;;;;;5103827;28;20210;-72
2022/01/27 08:18:38;;;;;;;94.57;21.17;;;6.40;99.90;;;;;;5103543;28;20233;-72
2022/01/27 08:21:05;;;;;;;74.17;19.03;;;6.40;99.90;;;;;;5099088;28;20229;-75
2022/01/27 08:23:33;;;;;;;79.30;19.70;;;;;;;;;;5103185;28;20604;-75
2022/01/27 08:26:05;;;;;;;87.33;20.23;;;6.20;99.90;;;;;;5094573;28;20626;-75
2022/01/27 08:28:37;;;;;;;102.73;27.20;;;6.10;99.90;;;;;;5098327;28;20234;-76
2022/01/27 08:31:04;;;;;;;94.47;23.07;;;6.20;99.90;;;;;;5103403;28;20686;-76
2022/01/27 08:33:32;;;;;;;105.83;26.27;;;6.20;99.90;;;;;;5103991;28;20340;-76
2022/01/27 08:36:00;;;;;;;98.93;24.20;;;6.20;99.90;;;;;;5099096;28;20209;-77
2022/01/27 08:38:28;;;;;;;87.60;20.23;;;6.20;99.90;;;;;;5104936;28;20254;-75
2022/01/27 08:40:55;;;;;;;104.13;26.87;;;6.20;99.90;;;;;;5106634;28;20209;-75
2022/01/27 08:43:22;;;;;;;87.77;21.40;;;6.20;99.90;;;;;;5100342;28;20215;-75
2022/01/27 08:45:50;;;;;;;91.13;23.33;;;6.30;99.90;;;;;;5103537;28;20629;-75
2022/01/27 08:48:20;;;;;;;95.10;24.97;;;6.40;99.90;;;;;;5106808;28;20751;-76
2022/01/27 08:50:53;;;;;;;87.57;21.93;;;6.30;99.90;;;;;;5105019;28;20207;-75
2022/01/27 08:53:22;;;;;;;82.63;21.13;;;6.40;99.90;;;;;;5099336;28;20218;-76
2022/01/27 08:55:49;;;;;;;84.83;20.70;;;6.40;99.90;;;;;;5107144;28;20199;-76
2022/01/27 08:58:16;;;;;;;92.23;22.83;;;6.40;99.90;;;;;;5104533;28;20255;-76
2022/01/27 09:00:43;;;;;;;110.43;27.40;;;6.40;99.90;;;;;;5104378;28;20211;-74
2022/01/27 09:03:10;;;;;;;92.90;22.60;;;6.30;99.90;;;;;;5106319;28;20211;-76
2022/01/27 09:05:37;;;;;;;93.90;22.07;;;6.30;99.90;;;;;;5107070;28;20191;-76
2022/01/27 09:08:04;;;;;;;92.93;22.37;;;6.30;99.90;;;;;;5104280;28;20218;-76
2022/01/27 09:10:33;;;;;;;105.20;27.40;;;6.30;99.90;;;;;;5103073;27;20200;-77
2022/01/27 09:13:00;;;;;;;91.37;24.40;;;6.10;99.90;;;;;;5099088;28;20644;-77
2022/01/27 09:15:28;;;;;;;101.07;23.77;;;6.20;99.90;;;;;;5110324;28;20223;-78
2022/01/27 09:17:57;;;;;;;96.77;23.83;;;6.20;99.90;;;;;;5101135;28;20226;-78
2022/01/27 09:20:25;;;;;;;104.80;24.67;;;6.20;99.90;;;;;;5097681;28;20212;-77
2022/01/27 09:22:53;;;;;;;105.10;25.63;;;6.20;99.90;;;;;;5098388;28;20302;-77
2022/01/27 09:25:24;;;;;;;92.50;24.90;;;6.20;99.90;;;;;;5096806;28;20218;-76
2022/01/27 09:27:52;;;;;;;96.47;24.70;;;6.20;99.90;;;;;;5102375;28;20607;-77
2022/01/27 09:30:19;;;;;;;104.57;27.93;;;6.20;99.90;;;;;;5105305;28;20562;-79
2022/01/27 09:32:47;;;;;;;91.20;22.07;;;6.20;99.90;;;;;;5099897;28;20533;-76
2022/01/27 09:35:15;;;;;;;105.80;27.60;;;6.30;99.90;;;;;;5105169;28;20632;-77
2022/01/27 09:37:42;;;;;;;94.60;24.10;;;6.30;99.90;;;;;;5099401;28;20219;-78
2022/01/27 09:40:10;;;;;;;95.57;26.33;;;6.30;99.90;;;;;;5105970;28;20301;-77
2022/01/27 09:42:38;;;;;;;102.70;24.30;;;6.40;99.90;;;;;;5103003;28;20215;-77
2022/01/27 09:45:09;;;;;;;94.93;25.83;;;6.50;99.90;;;;;;5102104;28;20329;-77
2022/01/27 09:47:40;;;;;;;80.17;21.33;;;6.50;99.90;;;;;;5098033;28;20249;-76
2022/01/27 09:50:22;;;;;;;93.30;26.07;;;6.50;99.90;;;;;;5104043;28;20634;-76
2022/01/27 09:52:49;;;;;;;96.20;24.63;;;6.50;99.90;;;;;;5097063;28;20213;-78
2022/01/27 09:55:16;;;;;;;97.30;25.07;;;6.50;99.90;;;;;;5107798;28;20211;-77
2022/01/27 09:57:45;;;;;;;93.47;25.67;;;4.10;99.90;;;;;;5106943;28;20228;-75
2022/01/27 10:00:15;;;;;;;98.10;25.53;;;6.50;99.90;;;;;;5103470;28;20212;-75
2022/01/27 10:03:07;;;;;;;89.27;23.60;;;6.60;99.90;;;;;;5107111;28;20623;-75
2022/01/27 10:05:35;;;;;;;99.73;24.27;;;6.60;99.90;;;;;;5108320;28;20212;-77
2022/01/27 10:08:05;;;;;;;102.83;25.90;;;6.60;99.90;;;;;;5108963;28;20833;-78
2022/01/27 10:10:37;;;;;;;87.77;23.40;;;6.60;99.90;;;;;;5108926;28;20221;-78
2022/01/27 10:13:06;;;;;;;102.80;26.57;;;6.60;99.90;;;;;;5100304;28;20214;-76
2022/01/27 10:15:39;;;;;;;84.67;23.67;;;6.70;99.90;;;;;;5106625;28;20240;-76
2022/01/27 10:18:12;;;;;;;98.77;26.10;;;7.20;99.90;;;;;;5100332;28;20225;-76
2022/01/27 10:20:43;;;;;;;108.43;28.10;;;6.80;99.90;;;;;;5104489;28;20217;-77
2022/01/27 10:23:12;;;;;;;87.40;23.13;;;6.80;99.90;;;;;;5103853;28;20214;-76
2022/01/27 10:25:46;;;;;;;100.23;27.07;;;6.90;99.90;;;;;;5107209;28;20213;-76
2022/01/27 10:28:35;;;;;;;83.57;20.37;;;6.90;99.90;;;;;;5105636;28;20253;-76
2022/01/27 10:31:06;;;;;;;103.67;26.57;;;7.00;99.90;;;;;;5103650;28;20211;-75
2022/01/27 10:33:51;;;;;;;86.53;22.37;;;7.10;99.90;;;;;;5100589;28;20207;-77
2022/01/27 10:36:21;;;;;;;87.97;22.73;;;7.10;99.90;;;;;;5110505;28;20224;-76
2022/01/27 10:38:51;;;;;;;87.77;21.40;;;7.10;99.90;;;;;;5100392;28;20227;-76
2022/01/27 10:41:18;;;;;;;80.07;20.80;;;7.20;99.90;;;;;;5109138;28;20220;-74
2022/01/27 10:43:45;;;;;;;89.93;26.50;;;7.20;99.90;;;;;;5094253;28;20252;-77
2022/01/27 10:46:21;;;;;;;78.63;21.53;;;7.30;99.90;;;;;;5108059;27;20256;-75
2022/01/27 10:48:53;;;;;;;81.30;20.27;;;7.30;99.90;;;;;;5107098;28;20819;-76
2022/01/27 10:51:25;;;;;;;71.50;20.03;;;7.30;99.90;;;;;;5107672;28;20708;-77
2022/01/27 10:53:59;;;;;;;78.90;19.30;;;7.30;99.90;;;;;;5105619;28;20213;-75
2022/01/27 10:56:28;;;;;;;76.30;20.40;;;7.40;99.90;;;;;;5106109;28;20667;-76
2022/01/27 10:58:58;;;;;;;78.37;21.13;;;7.40;99.90;;;;;;5102308;28;20370;-78
2022/01/27 11:01:34;;;;;;;79.43;19.73;;;7.40;99.90;;;;;;5096738;28;20207;-76
2022/01/27 11:04:04;;;;;;;68.83;17.83;;;7.40;99.90;;;;;;5107685;28;20234;-76
2022/01/27 11:06:33;;;;;;;94.80;23.03;;;7.40;99.90;;;;;;5104684;28;20211;-77
2022/01/27 11:09:07;;;;;;;90.17;23.60;;;7.40;99.90;;;;;;5107641;28;20707;-76
2022/01/27 11:11:35;;;;;;;78.10;18.37;;;;;;;;;;5096172;28;20239;-77
2022/01/27 11:14:03;;;;;;;81.90;19.53;;;7.40;99.90;;;;;;5103879;28;20579;-78
2022/01/27 11:16:36;;;;;;;78.90;18.57;;;7.40;99.90;;;;;;5105385;28;20676;-74
2022/01/27 11:19:35;;;;;;;73.40;18.17;;;7.40;99.90;;;;;;5102023;28;20319;-75
2022/01/27 11:22:09;;;;;;;83.80;19.40;;;7.40;99.90;;;;;;5105655;28;20201;-75
2022/01/27 11:25:05;;;;;;;76.37;18.80;;;7.40;99.90;;;;;;5120379;27;20271;-77
2022/01/27 11:27:33;;;;;;;69.20;16.27;;;7.40;99.90;;;;;;5103400;28;20215;-76
2022/01/27 11:30:05;;;;;;;82.47;19.90;;;7.50;99.90;;;;;;5107813;28;20717;-76
2022/01/27 11:32:36;;;;;;;73.07;16.27;;;7.50;99.90;;;;;;5107018;28;20201;-77
2022/01/27 11:35:15;;;;;;;81.73;17.93;;;7.50;99.90;;;;;;5101238;28;20680;-77
2022/01/27 11:37:42;;;;;;;69.57;17.67;;;7.50;99.90;;;;;;5104444;28;20225;-77
2022/01/27 11:40:11;;;;;;;77.40;17.90;;;7.50;99.90;;;;;;5093913;28;20653;-76
2022/01/27 11:43:01;;;;;;;75.43;18.53;;;7.50;99.90;;;;;;5099221;28;20916;-76
2022/01/27 11:45:30;;;;;;;68.67;16.33;;;;;;;;;;5103706;28;20211;-76
2022/01/27 11:48:02;;;;;;;70.73;17.40;;;7.40;99.90;;;;;;5103291;28;20233;-77
2022/01/27 11:50:34;;;;;;;84.43;17.83;;;7.40;99.90;;;;;;5107030;28;20213;-77
2022/01/27 11:53:03;;;;;;;78.40;17.63;;;7.50;99.90;;;;;;5108506;28;20211;-77
2022/01/27 11:55:45;;;;;;;73.23;17.53;;;7.50;99.90;;;;;;5105722;28;20212;-76
2022/01/27 11:58:20;;;;;;;83.63;19.47;;;7.50;99.90;;;;;;5098825;28;20234;-76
2022/01/27 12:01:07;;;;;;;62.57;15.13;;;7.50;99.90;;;;;;5105187;28;20680;-76
2022/01/27 12:03:38;;;;;;;79.13;19.47;;;7.50;99.90;;;;;;5106457;28;20208;-77
2022/01/27 12:06:29;;;;;;;73.40;17.67;;;7.60;99.90;;;;;;5103274;28;20208;-77
2022/01/27 12:09:27;;;;;;;83.23;19.80;;;7.60;99.90;;;;;;5102027;27;20578;-76
2022/01/27 12:11:56;;;;;;;74.23;18.40;;;7.60;99.90;;;;;;5117005;28;21244;-76
2022/01/27 12:14:27;;;;;;;90.80;21.53;;;7.70;99.90;;;;;;5109677;28;20213;-76
2022/01/27 12:17:23;;;;;;;83.77;21.30;;;7.70;99.90;;;;;;5097754;28;20230;-76
2022/01/27 12:19:53;;;;;;;65.37;17.13;;;7.80;99.90;;;;;;5096081;28;20318;-75
2022/01/27 12:22:22;;;;;;;88.10;22.83;;;7.80;99.90;;;;;;5099859;28;20215;-77
2022/01/27 12:24:54;;;;;;;88.50;21.27;;;7.90;99.90;;;;;;5096546;28;20658;-76
2022/01/27 12:27:22;;;;;;;76.87;18.33;;;7.80;99.90;;;;;;5107027;28;20211;-75
2022/01/27 12:29:50;;;;;;;71.37;16.47;;;7.90;99.90;;;;;;5101784;28;20222;-75
2022/01/27 12:32:22;;;;;;;77.97;18.90;;;7.90;99.90;;;;;;5101238;28;20208;-75
2022/01/27 12:34:52;;;;;;;72.53;19.10;;;7.90;99.90;;;;;;5106688;28;20210;-75
2022/01/27 12:37:22;;;;;;;66.83;17.57;;;7.90;99.90;;;;;;5106753;28;20248;-75
2022/01/27 12:39:54;;;;;;;80.73;20.97;;;7.90;99.90;;;;;;5099034;28;20219;-78
2022/01/27 12:42:24;;;;;;;76.30;18.60;;;7.90;99.90;;;;;;5103877;28;20223;-76
2022/01/27 12:44:57;;;;;;;81.30;20.17;;;7.90;99.90;;;;;;5107444;28;20207;-77
2022/01/27 12:47:24;;;;;;;68.90;16.47;;;7.90;99.90;;;;;;5108037;28;20210;-77
2022/01/27 12:50:03;;;;;;;68.43;17.77;;;7.90;99.90;;;;;;5100294;28;20214;-78
2022/01/27 12:52:32;;;;;;;75.40;18.93;;;7.90;99.90;;;;;;5099390;28;20217;-78
2022/01/27 12:54:59;;;;;;;65.10;15.57;;;7.90;99.90;;;;;;5105281;28;20215;-76
2022/01/27 12:57:27;;;;;;;80.03;17.47;;;7.80;99.90;;;;;;5096763;28;20203;-76
2022/01/27 12:59:56;;;;;;;81.50;19.57;;;7.80;99.90;;;;;;5105368;28;20554;-76
2022/01/27 13:02:26;;;;;;;68.10;16.47;;;7.80;99.90;;;;;;5106196;28;20225;-78
2022/01/27 13:04:56;;;;;;;85.50;20.40;;;7.80;99.90;;;;;;5103811;28;20502;-76
2022/01/27 13:07:25;;;;;;;64.27;16.00;;;7.80;99.90;;;;;;5107337;28;20215;-78
2022/01/27 13:09:57;;;;;;;75.93;18.30;;;7.80;99.90;;;;;;5106271;28;20225;-79
2022/01/27 13:12:29;;;;;;;86.23;17.63;;;7.80;99.90;;;;;;5100159;28;20281;-78
2022/01/27 13:15:04;;;;;;;73.73;17.87;;;7.80;99.90;;;;;;5101328;28;20211;-76
2022/01/27 13:17:33;;;;;;;82.07;17.87;;;7.80;99.90;;;;;;5095013;28;20203;-77
2022/01/27 13:20:29;;;;;;;74.80;16.97;;;7.80;99.90;;;;;;5106149;28;20224;-78
2022/01/27 13:23:03;;;;;;;62.70;13.53;;;7.80;99.90;;;;;;5094214;28;20222;-79